createdAt,value
2019-05-22T00:00:41.790Z,2.23
2019-05-22T00:03:30.371Z,2.57
2019-05-22T00:06:02.015Z,6.87
2019-05-22T00:08:34.058Z,2.00
2019-05-22T00:11:05.774Z,2.77
2019-05-22T00:13:38.589Z,2.40
2019-05-22T00:16:11.329Z,2.03
2019-05-22T00:18:42.151Z,2.67
2019-05-22T00:21:12.825Z,2.63
2019-05-22T00:23:44.475Z,3.20
2019-05-22T00:26:14.914Z,2.50
2019-05-22T00:28:45.925Z,2.70
2019-05-22T00:31:16.579Z,3.53
2019-05-22T00:33:47.990Z,2.60
2019-05-22T00:36:19.404Z,2.37
2019-05-22T00:38:51.350Z,2.83
2019-05-22T00:41:23.859Z,2.70
2019-05-22T00:43:56.838Z,2.03
2019-05-22T00:46:28.586Z,3.10
2019-05-22T00:48:58.592Z,2.07
2019-05-22T00:51:36.190Z,2.40
2019-05-22T00:54:25.518Z,2.60
2019-05-22T00:56:57.149Z,1.93
2019-05-22T00:59:35.545Z,2.70
2019-05-22T01:02:10.042Z,2.87
2019-05-22T01:04:42.859Z,2.50
2019-05-22T01:07:20.619Z,2.03
2019-05-22T01:09:52.835Z,2.17
2019-05-22T01:12:43.568Z,3.43
2019-05-22T01:15:18.402Z,1.80
2019-05-22T01:17:50.043Z,1.60
2019-05-22T01:20:26.445Z,2.63
2019-05-22T01:22:58.748Z,2.13
2019-05-22T01:25:28.993Z,4.20
2019-05-22T01:28:02.914Z,2.20
2019-05-22T01:30:34.728Z,3.03
2019-05-22T01:33:07.854Z,2.50
2019-05-22T01:35:39.387Z,3.60
2019-05-22T01:38:12.403Z,2.87
2019-05-22T01:41:01.769Z,3.30
2019-05-22T01:43:32.050Z,5.27
2019-05-22T01:46:03.699Z,3.83
2019-05-22T01:48:36.966Z,5.27
2019-05-22T01:51:09.311Z,4.28
2019-05-22T01:53:42.220Z,4.33
2019-05-22T01:56:16.000Z,3.97
2019-05-22T01:58:47.577Z,4.97
2019-05-22T02:01:20.451Z,6.37
2019-05-22T02:03:52.113Z,5.33
2019-05-22T02:06:25.197Z,6.30
2019-05-22T02:09:05.195Z,6.00
2019-05-22T02:11:35.773Z,8.03
2019-05-22T02:14:09.389Z,5.33
2019-05-22T02:16:56.023Z,4.75
2019-05-22T02:19:15.605Z,8.33
2019-05-22T02:21:45.994Z,6.57
2019-05-22T02:24:16.039Z,7.83
2019-05-22T02:26:46.842Z,7.53
2019-05-22T02:29:19.505Z,11.00
2019-05-22T02:31:55.128Z,8.73
2019-05-22T02:34:22.669Z,7.37
2019-05-22T02:36:53.921Z,8.63
2019-05-22T02:39:31.585Z,14.83
2019-05-22T02:42:07.974Z,11.80
2019-05-22T02:44:38.559Z,12.37
2019-05-22T02:47:18.833Z,12.40
2019-05-22T02:49:41.725Z,11.00
2019-05-22T02:52:12.893Z,13.63
2019-05-22T02:54:44.369Z,14.43
2019-05-22T02:57:15.724Z,17.80
2019-05-22T02:59:47.084Z,17.93
2019-05-22T03:02:18.240Z,17.97
2019-05-22T03:05:02.043Z,18.93
2019-05-22T03:07:33.021Z,21.68
2019-05-22T03:10:03.782Z,21.83
2019-05-22T03:12:36.395Z,23.70
2019-05-22T03:15:13.125Z,25.03
2019-05-22T03:17:45.255Z,21.17
2019-05-22T03:20:18.878Z,25.90
2019-05-22T03:23:10.001Z,25.10
2019-05-22T03:25:42.289Z,25.93
2019-05-22T03:28:13.350Z,23.43
2019-05-22T03:30:45.512Z,24.27
2019-05-22T03:33:16.664Z,18.03
2019-05-22T03:35:50.691Z,20.13
2019-05-22T03:38:21.687Z,19.17
2019-05-22T03:40:53.484Z,20.23
2019-05-22T03:43:27.261Z,20.57
2019-05-22T03:46:00.917Z,20.15
2019-05-22T03:48:36.449Z,18.50
2019-05-22T03:51:13.793Z,22.90
2019-05-22T03:53:45.139Z,18.97
2019-05-22T03:56:17.488Z,20.17
2019-05-22T03:58:47.581Z,22.10
2019-05-22T04:01:18.841Z,22.70
2019-05-22T04:03:50.666Z,22.13
2019-05-22T04:06:22.825Z,23.63
2019-05-22T04:08:54.406Z,24.83
2019-05-22T04:11:28.797Z,21.97
2019-05-22T04:13:59.620Z,24.07
2019-05-22T04:16:29.986Z,23.60
2019-05-22T04:19:02.745Z,25.20
2019-05-22T04:21:32.737Z,26.03
2019-05-22T04:24:03.209Z,21.23
2019-05-22T04:26:33.569Z,28.00
2019-05-22T04:29:04.840Z,28.17
2019-05-22T04:31:44.481Z,26.07
2019-05-22T04:34:15.531Z,29.37
2019-05-22T04:36:47.026Z,29.90
2019-05-22T04:39:24.158Z,27.17
2019-05-22T04:41:58.280Z,27.20
2019-05-22T04:44:28.352Z,33.10
2019-05-22T04:46:58.437Z,37.37
2019-05-22T04:49:28.533Z,32.37
2019-05-22T04:51:58.778Z,30.23
2019-05-22T04:54:28.810Z,37.93
2019-05-22T04:56:58.673Z,40.00
2019-05-22T04:59:30.055Z,34.60
2019-05-22T05:02:00.915Z,37.97
2019-05-22T05:04:31.151Z,37.00
2019-05-22T05:07:02.145Z,37.47
2019-05-22T05:09:34.311Z,34.60
2019-05-22T05:12:06.512Z,41.10
2019-05-22T05:14:36.574Z,33.50
2019-05-22T05:17:07.793Z,33.60
2019-05-22T05:19:37.947Z,39.53
2019-05-22T05:22:08.112Z,35.50
2019-05-22T05:24:38.135Z,25.23
2019-05-22T05:27:08.136Z,26.43
2019-05-22T05:29:38.389Z,26.70
2019-05-22T05:32:10.552Z,29.40
2019-05-22T05:34:46.220Z,29.23
2019-05-22T05:37:19.753Z,34.30
2019-05-22T05:39:52.922Z,37.37
2019-05-22T05:42:22.949Z,33.97
2019-05-22T05:44:52.941Z,37.63
2019-05-22T05:47:24.306Z,49.43
2019-05-22T05:49:55.081Z,49.37
2019-05-22T05:52:28.181Z,63.23
2019-05-22T05:54:58.182Z,47.80
2019-05-22T05:57:40.473Z,56.37
2019-05-22T06:00:14.591Z,50.53
2019-05-22T06:02:56.041Z,53.83
2019-05-22T06:05:16.371Z,52.90
2019-05-22T06:07:47.363Z,60.77
2019-05-22T06:10:29.775Z,55.23
2019-05-22T06:13:00.582Z,57.13
2019-05-22T06:15:46.978Z,62.17
2019-05-22T06:18:30.427Z,50.77
2019-05-22T06:21:04.466Z,46.73
2019-05-22T06:26:19.893Z,56.60
2019-05-22T06:28:52.308Z,56.87
2019-05-22T06:31:55.749Z,49.93
2019-05-22T06:34:26.452Z,64.83
2019-05-22T06:36:58.872Z,46.80
2019-05-22T06:39:30.350Z,54.77
2019-05-22T06:42:00.696Z,45.43
2019-05-22T06:44:33.885Z,50.87
2019-05-22T06:47:06.085Z,51.70
2019-05-22T06:49:40.815Z,49.23
2019-05-22T06:52:11.079Z,48.73
2019-05-22T06:54:41.210Z,47.00
2019-05-22T06:57:13.792Z,40.33
2019-05-22T06:59:45.302Z,46.10
2019-05-22T07:02:17.941Z,38.80
2019-05-22T07:04:48.931Z,42.33
2019-05-22T07:07:22.059Z,44.93
2019-05-22T07:09:53.351Z,39.77
2019-05-22T07:12:24.918Z,45.90
2019-05-22T07:15:11.650Z,43.93
2019-05-22T07:17:42.212Z,39.83
2019-05-22T07:20:15.087Z,40.33
2019-05-22T07:22:46.319Z,36.17
2019-05-22T07:25:18.182Z,35.47
2019-05-22T07:27:49.071Z,37.87
2019-05-22T07:30:19.233Z,35.67
2019-05-22T07:32:49.360Z,40.73
2019-05-22T07:35:19.426Z,37.07
2019-05-22T07:37:51.611Z,37.13
2019-05-22T07:40:22.680Z,40.23
2019-05-22T07:42:53.636Z,40.27
2019-05-22T07:45:27.110Z,36.27
2019-05-22T07:47:58.456Z,24.70
2019-05-22T07:50:31.353Z,31.53
2019-05-22T07:53:01.933Z,30.37
2019-05-22T07:55:33.842Z,31.73
2019-05-22T07:58:15.693Z,27.43
2019-05-22T08:00:50.429Z,33.33
2019-05-22T08:03:21.613Z,27.53
2019-05-22T08:05:56.694Z,30.73
2019-05-22T08:08:29.864Z,29.63
2019-05-22T08:10:59.917Z,31.30
2019-05-22T08:13:32.461Z,27.10
2019-05-22T08:16:03.253Z,35.20
2019-05-22T08:18:35.183Z,33.73
2019-05-22T08:21:06.874Z,30.87
2019-05-22T08:23:38.088Z,35.20
2019-05-22T08:26:10.919Z,29.20
2019-05-22T08:28:41.596Z,29.90
2019-05-22T08:31:13.309Z,31.90
2019-05-22T08:33:43.997Z,37.53
2019-05-22T08:36:14.196Z,41.47
2019-05-22T08:38:45.763Z,41.17
2019-05-22T08:41:19.108Z,31.03
2019-05-22T08:44:13.879Z,34.00
2019-05-22T08:46:22.136Z,36.53
2019-05-22T08:48:53.405Z,32.50
2019-05-22T08:51:23.846Z,30.67
2019-05-22T08:53:55.872Z,25.70
2019-05-22T08:56:27.556Z,29.70
2019-05-22T08:58:58.240Z,31.57
2019-05-22T09:01:28.355Z,30.03
2019-05-22T09:03:58.835Z,27.87
2019-05-22T09:06:29.537Z,24.40
2019-05-22T09:08:59.524Z,23.63
2019-05-22T09:11:29.650Z,23.60
2019-05-22T09:13:59.694Z,20.87
2019-05-22T09:16:29.716Z,19.00
2019-05-22T09:18:59.748Z,23.53
2019-05-22T09:21:29.738Z,20.47
2019-05-22T09:24:02.337Z,20.50
2019-05-22T09:26:32.887Z,18.87
2019-05-22T09:29:03.967Z,20.27
2019-05-22T09:31:34.031Z,23.23
2019-05-22T09:34:04.350Z,23.57
2019-05-22T09:36:34.790Z,23.97
2019-05-22T09:39:08.145Z,21.33
2019-05-22T09:41:38.805Z,22.60
2019-05-22T09:44:10.079Z,24.43
2019-05-22T09:46:41.955Z,21.13
2019-05-22T09:49:13.418Z,26.67
2019-05-22T09:51:45.076Z,24.80
2019-05-22T09:54:17.133Z,22.40
2019-05-22T09:56:48.961Z,23.07
2019-05-22T09:59:19.703Z,23.93
2019-05-22T10:01:49.898Z,27.83
2019-05-22T10:04:20.848Z,23.97
2019-05-22T10:06:51.456Z,30.40
2019-05-22T10:09:21.551Z,29.87
2019-05-22T10:11:51.946Z,30.67
2019-05-22T10:14:23.383Z,28.80
2019-05-22T10:16:54.814Z,26.33
2019-05-22T10:19:25.159Z,30.90
2019-05-22T10:21:55.637Z,26.50
2019-05-22T10:24:27.099Z,24.23
2019-05-22T10:26:57.415Z,22.67
2019-05-22T10:29:31.966Z,20.77
2019-05-22T10:32:00.636Z,24.73
2019-05-22T10:34:31.363Z,24.37
2019-05-22T10:37:01.400Z,24.33
2019-05-22T10:39:32.232Z,24.87
2019-05-22T10:42:03.267Z,24.47
2019-05-22T10:44:33.575Z,20.37
2019-05-22T10:47:04.561Z,22.40
2019-05-22T10:49:35.884Z,23.47
2019-05-22T10:52:06.650Z,23.47
2019-05-22T10:54:36.721Z,23.23
2019-05-22T10:57:07.906Z,24.43
2019-05-22T10:59:38.201Z,23.97
2019-05-22T11:02:09.135Z,25.10
2019-05-22T11:04:39.726Z,21.50
2019-05-22T11:07:10.213Z,23.70
2019-05-22T11:09:40.425Z,27.50
2019-05-22T11:12:12.619Z,28.60
2019-05-22T11:14:43.577Z,22.57
2019-05-22T11:17:14.427Z,19.27
2019-05-22T11:19:45.485Z,19.07
2019-05-22T11:22:16.983Z,19.30
2019-05-22T11:24:47.053Z,20.60
2019-05-22T11:27:17.024Z,19.07
2019-05-22T11:29:46.993Z,19.20
2019-05-22T11:32:17.145Z,22.77
2019-05-22T11:34:47.206Z,21.47
2019-05-22T11:37:17.708Z,24.77
2019-05-22T11:39:47.867Z,23.70
2019-05-22T11:42:18.769Z,24.90
2019-05-22T11:44:50.189Z,26.10
2019-05-22T11:47:20.328Z,27.07
2019-05-22T11:49:50.355Z,23.20
2019-05-22T11:52:21.154Z,29.00
2019-05-22T11:54:51.786Z,25.93
2019-05-22T11:57:21.829Z,24.67
2019-05-22T11:59:52.704Z,23.80
2019-05-22T12:02:24.082Z,24.23
2019-05-22T12:04:54.849Z,26.10
2019-05-22T12:07:24.942Z,29.40
2019-05-22T12:09:55.703Z,30.10
2019-05-22T12:12:26.605Z,33.30
2019-05-22T12:14:56.694Z,32.67
2019-05-22T12:17:37.715Z,31.07
2019-05-22T12:19:58.825Z,38.50
2019-05-22T12:22:28.892Z,35.10
2019-05-22T12:24:58.881Z,35.70
2019-05-22T12:27:30.000Z,33.87
2019-05-22T12:30:00.730Z,35.97
2019-05-22T12:32:34.318Z,31.03
2019-05-22T12:35:06.998Z,29.73
2019-05-22T12:37:37.659Z,29.83
2019-05-22T12:40:12.377Z,29.87
2019-05-22T12:42:42.975Z,28.87
2019-05-22T12:45:14.458Z,26.30
2019-05-22T12:47:44.635Z,29.17
2019-05-22T12:50:18.759Z,25.53
2019-05-22T12:52:50.723Z,24.87
2019-05-22T12:55:21.956Z,23.47
2019-05-22T12:57:53.497Z,27.30
2019-05-22T13:00:27.046Z,26.33
2019-05-22T13:03:00.433Z,33.73
2019-05-22T13:05:32.701Z,24.77
2019-05-22T13:08:03.635Z,28.20
2019-05-22T13:10:35.074Z,27.13
2019-05-22T13:13:07.153Z,23.70
2019-05-22T13:15:38.827Z,22.73
2019-05-22T13:18:12.893Z,25.60
2019-05-22T13:20:47.910Z,26.00
2019-05-22T13:23:19.574Z,21.43
2019-05-22T13:25:55.652Z,21.83
2019-05-22T13:28:28.630Z,23.02
2019-05-22T13:31:01.842Z,26.82
2019-05-22T13:33:33.111Z,27.00
2019-05-22T13:36:06.946Z,25.27
2019-05-22T13:38:41.044Z,25.70
2019-05-22T13:41:13.531Z,27.10
2019-05-22T13:43:46.741Z,28.37
2019-05-22T13:46:19.765Z,27.40
2019-05-22T13:48:51.248Z,26.57
2019-05-22T13:51:21.367Z,25.10
2019-05-22T13:53:52.205Z,26.00
2019-05-22T13:56:28.923Z,25.37
2019-05-22T13:59:01.255Z,24.50
2019-05-22T14:01:31.531Z,26.87
2019-05-22T14:04:01.709Z,29.43
2019-05-22T14:06:31.870Z,28.00
2019-05-22T14:09:02.656Z,24.97
2019-05-22T14:11:34.521Z,29.33
2019-05-22T14:14:04.776Z,29.10
2019-05-22T14:16:48.100Z,32.20
2019-05-22T14:19:07.552Z,27.73
2019-05-22T14:21:37.788Z,29.37
2019-05-22T14:24:08.073Z,30.03
2019-05-22T14:26:39.080Z,31.67
2019-05-22T14:29:09.061Z,34.67
2019-05-22T14:31:40.286Z,36.33
2019-05-22T14:34:10.835Z,31.53
2019-05-22T14:36:42.017Z,32.40
2019-05-22T14:39:14.525Z,30.83
2019-05-22T14:41:44.504Z,31.13
2019-05-22T14:44:14.535Z,28.53
2019-05-22T14:46:44.541Z,39.90
2019-05-22T14:49:15.253Z,32.43
2019-05-22T14:51:46.964Z,30.70
2019-05-22T14:54:17.857Z,27.97
2019-05-22T14:56:48.424Z,32.60
2019-05-22T14:59:19.132Z,28.73
2019-05-22T15:01:49.124Z,27.57
2019-05-22T15:04:19.622Z,29.07
2019-05-22T15:06:51.287Z,31.87
2019-05-22T15:09:21.313Z,31.93
2019-05-22T15:11:52.116Z,31.53
2019-05-22T15:14:23.146Z,28.17
2019-05-22T15:16:53.140Z,25.03
2019-05-22T15:19:24.239Z,26.67
2019-05-22T15:21:54.240Z,25.37
2019-05-22T15:24:24.873Z,30.83
2019-05-22T15:26:55.126Z,27.60
2019-05-22T15:29:25.741Z,25.97
2019-05-22T15:31:55.765Z,25.27
2019-05-22T15:34:26.861Z,25.27
2019-05-22T15:36:58.318Z,25.80
2019-05-22T15:39:30.749Z,22.43
2019-05-22T15:42:05.193Z,24.43
2019-05-22T15:44:35.674Z,23.87
2019-05-22T15:47:06.953Z,25.40
2019-05-22T15:49:39.680Z,21.93
2019-05-22T15:52:13.748Z,26.10
2019-05-22T15:54:46.639Z,23.85
2019-05-22T15:57:17.323Z,22.63
2019-05-22T15:59:48.956Z,22.20
2019-05-22T16:02:21.989Z,22.03
2019-05-22T16:04:52.836Z,25.70
2019-05-22T16:07:23.938Z,21.17
2019-05-22T16:09:53.917Z,20.80
2019-05-22T16:12:24.941Z,19.87
2019-05-22T16:14:55.396Z,19.30
2019-05-22T16:17:28.021Z,20.77
2019-05-22T16:19:58.143Z,22.87
2019-05-22T16:22:28.955Z,21.13
2019-05-22T16:24:59.332Z,20.33
2019-05-22T16:27:31.393Z,20.23
2019-05-22T16:30:03.691Z,25.43
2019-05-22T16:32:36.356Z,22.77
2019-05-22T16:35:08.127Z,18.17
2019-05-22T16:37:38.332Z,22.00
2019-05-22T16:40:10.851Z,20.13
2019-05-22T16:42:42.299Z,18.17
2019-05-22T16:45:14.066Z,17.10
2019-05-22T16:47:45.004Z,16.53
2019-05-22T16:50:16.874Z,18.27
2019-05-22T16:52:47.649Z,16.83
2019-05-22T16:55:19.936Z,17.93
2019-05-22T16:57:49.996Z,11.53
2019-05-22T17:00:21.579Z,13.27
2019-05-22T17:02:52.371Z,15.00
2019-05-22T17:05:23.875Z,14.53
2019-05-22T17:07:54.905Z,13.03
2019-05-22T17:10:25.606Z,13.90
2019-05-22T17:12:57.277Z,14.70
2019-05-22T17:15:29.442Z,12.70
2019-05-22T17:17:59.563Z,14.07
2019-05-22T17:20:31.199Z,14.63
2019-05-22T17:23:02.357Z,12.87
2019-05-22T17:25:32.913Z,12.43
2019-05-22T17:28:05.175Z,14.40
2019-05-22T17:30:36.789Z,13.90
2019-05-22T17:33:08.003Z,14.77
2019-05-22T17:35:39.638Z,12.97
2019-05-22T17:38:11.312Z,12.27
2019-05-22T17:40:41.535Z,11.50
2019-05-22T17:43:13.440Z,14.90
2019-05-22T17:45:45.115Z,13.10
2019-05-22T17:48:16.543Z,10.90
2019-05-22T17:50:48.008Z,10.83
2019-05-22T17:53:19.266Z,11.67
2019-05-22T17:55:50.734Z,10.70
2019-05-22T17:58:24.532Z,12.23
2019-05-22T18:00:55.919Z,11.73
2019-05-22T18:03:26.001Z,12.07
2019-05-22T18:05:56.790Z,11.00
2019-05-22T18:08:28.063Z,10.87
2019-05-22T18:10:59.456Z,9.83
2019-05-22T18:13:29.873Z,9.87
2019-05-22T18:15:59.960Z,8.33
2019-05-22T18:18:29.880Z,11.47
2019-05-22T18:20:59.914Z,10.23
2019-05-22T18:23:29.899Z,9.97
2019-05-22T18:26:00.025Z,10.27
2019-05-22T18:28:30.613Z,10.07
2019-05-22T18:31:01.094Z,9.07
2019-05-22T18:33:31.210Z,8.10
2019-05-22T18:36:01.225Z,9.87
2019-05-22T18:38:31.271Z,7.47
2019-05-22T18:41:01.503Z,9.57
2019-05-22T18:43:31.617Z,8.10
2019-05-22T18:46:01.703Z,7.53
2019-05-22T18:48:33.140Z,8.00
2019-05-22T18:51:06.587Z,8.57
2019-05-22T18:53:36.768Z,7.27
2019-05-22T18:56:10.808Z,8.60
2019-05-22T18:58:40.870Z,5.20
2019-05-22T19:01:12.387Z,8.83
2019-05-22T19:03:42.398Z,9.47
2019-05-22T19:06:12.391Z,7.30
2019-05-22T19:08:42.380Z,8.83
2019-05-22T19:11:12.396Z,6.00
2019-05-22T19:13:42.385Z,11.57
2019-05-22T19:16:12.404Z,8.47
2019-05-22T19:18:42.489Z,7.90
2019-05-22T19:21:12.494Z,8.87
2019-05-22T19:23:42.585Z,11.23
2019-05-22T19:26:12.652Z,9.13
2019-05-22T19:28:44.446Z,13.00
2019-05-22T19:31:15.112Z,13.80
2019-05-22T19:33:45.205Z,8.60
2019-05-22T19:36:15.296Z,13.07
2019-05-22T19:38:45.303Z,10.80
2019-05-22T19:41:15.467Z,10.50
2019-05-22T19:43:46.431Z,10.17
2019-05-22T19:46:17.511Z,9.27
2019-05-22T19:48:48.075Z,6.67
2019-05-22T19:51:19.457Z,8.20
2019-05-22T19:53:50.411Z,10.90
2019-05-22T19:56:23.625Z,8.40
2019-05-22T19:58:52.668Z,9.57
2019-05-22T20:01:23.126Z,10.13
2019-05-22T20:03:53.175Z,7.37
2019-05-22T20:06:24.037Z,10.50
2019-05-22T20:08:54.728Z,10.50
2019-05-22T20:11:26.880Z,10.00
2019-05-22T20:13:57.936Z,11.17
2019-05-22T20:16:28.192Z,11.10
2019-05-22T20:18:58.388Z,9.10
2019-05-22T20:21:29.034Z,10.37
2019-05-22T20:23:59.686Z,7.47
2019-05-22T20:26:29.745Z,11.93
2019-05-22T20:29:01.587Z,8.23
2019-05-22T20:31:31.975Z,12.50
2019-05-22T20:34:01.990Z,13.27
2019-05-22T20:36:33.058Z,13.27
2019-05-22T20:39:03.637Z,14.03
2019-05-22T20:41:34.402Z,12.53
2019-05-22T20:44:05.915Z,11.13
2019-05-22T20:46:38.075Z,12.10
2019-05-22T20:49:10.174Z,12.77
2019-05-22T20:51:41.448Z,9.70
2019-05-22T20:54:12.900Z,11.90
2019-05-22T20:56:44.479Z,10.27
2019-05-22T20:59:14.635Z,10.43
2019-05-22T21:01:46.532Z,15.17
2019-05-22T21:04:19.837Z,13.87
2019-05-22T21:06:59.581Z,11.03
2019-05-22T21:09:28.103Z,13.30
2019-05-22T21:11:58.788Z,13.20
2019-05-22T21:14:28.851Z,16.37
2019-05-22T21:17:01.069Z,14.60
2019-05-22T21:19:31.650Z,14.83
2019-05-22T21:22:02.906Z,14.53
2019-05-22T21:24:36.228Z,15.33
2019-05-22T21:27:07.688Z,14.70
2019-05-22T21:29:38.200Z,13.97
2019-05-22T21:32:08.598Z,14.33
2019-05-22T21:34:39.578Z,15.27
2019-05-22T21:37:10.019Z,13.87
2019-05-22T21:39:41.655Z,14.50
2019-05-22T21:42:11.976Z,13.50
2019-05-22T21:44:42.246Z,14.10
2019-05-22T21:47:14.034Z,21.00
2019-05-22T21:49:45.662Z,16.37
2019-05-22T21:52:15.751Z,13.57
2019-05-22T21:54:45.822Z,16.00
2019-05-22T21:57:17.323Z,15.90
2019-05-22T21:59:47.370Z,15.07
2019-05-22T22:02:24.446Z,15.43
2019-05-22T22:04:55.414Z,16.57
2019-05-22T22:07:26.063Z,17.83
2019-05-22T22:09:58.381Z,16.67
2019-05-22T22:12:29.159Z,22.27
2019-05-22T22:14:59.145Z,24.70
2019-05-22T22:17:30.609Z,19.00
2019-05-22T22:20:02.166Z,19.33
2019-05-22T22:22:35.554Z,20.73
2019-05-22T22:25:10.865Z,19.77
2019-05-22T22:27:41.756Z,20.87
2019-05-22T22:30:15.457Z,20.43
2019-05-22T22:32:46.344Z,17.70
2019-05-22T22:35:17.278Z,14.80
2019-05-22T22:37:48.378Z,19.73
2019-05-22T22:40:22.909Z,17.93
2019-05-22T22:42:57.520Z,20.80
2019-05-22T22:45:43.936Z,18.03
2019-05-22T22:48:17.366Z,15.30
2019-05-22T22:50:47.852Z,15.40
2019-05-22T22:53:18.581Z,14.03
2019-05-22T22:55:49.331Z,13.37
2019-05-22T22:58:20.251Z,16.70
2019-05-22T23:00:53.357Z,14.17
2019-05-22T23:03:27.552Z,16.27
2019-05-22T23:05:59.084Z,15.43
2019-05-22T23:08:32.011Z,16.80
2019-05-22T23:11:03.041Z,15.77
2019-05-22T23:13:33.164Z,16.07
2019-05-22T23:16:04.720Z,15.50
2019-05-22T23:18:45.456Z,21.57
2019-05-22T23:21:15.789Z,15.80
2019-05-22T23:23:46.135Z,14.87
2019-05-22T23:26:17.812Z,16.77
2019-05-22T23:28:48.240Z,16.20
2019-05-22T23:31:21.028Z,15.33
2019-05-22T23:33:52.317Z,14.63
2019-05-22T23:36:24.171Z,20.27
2019-05-22T23:38:54.463Z,19.13
2019-05-22T23:41:26.232Z,20.27
2019-05-22T23:43:56.254Z,20.87
2019-05-22T23:46:29.178Z,18.13
2019-05-22T23:48:59.860Z,19.37
2019-05-22T23:51:30.815Z,20.87
2019-05-22T23:54:01.949Z,15.50
2019-05-22T23:56:33.620Z,17.97
2019-05-22T23:59:03.805Z,15.40
